Time;durP1;ratioP1;P1;durP2;ratioP2;P2;SDS_P1;SDS_P2;PMS_P1;PMS_P2;Temp;Humidity;BMP_temperature;BMP_pressure;BME280_temperature;BME280_humidity;BME280_pressure;Samples;Min_cycle;Max_cycle;Signal;HPM_P1;HPM_P2
2023/04/12 00:02:09;;;;;;;2.90;1.77;;;;;;;6.15;75.46;100136.09;5038029;28;20708;-78
2023/04/12 00:04:36;;;;;;;3.10;1.60;;;;;;;6.11;75.71;100142.19;5038584;28;20219;-79
2023/04/12 00:07:04;;;;;;;5.90;2.47;;;;;;;6.06;75.93;100130.13;5039579;28;20287;-78
2023/04/12 00:09:31;;;;;;;2.57;1.80;;;;;;;6.13;75.97;100116.25;5039711;28;20212;-79
2023/04/12 00:11:58;;;;;;;2.10;1.90;;;;;;;6.08;75.74;100128.38;5040447;28;20212;-79
2023/04/12 00:14:26;;;;;;;2.03;1.70;;;;;;;6.12;74.70;100130.94;5040327;28;20663;-79
2023/04/12 00:16:52;;;;;;;3.57;1.57;;;;;;;6.05;74.68;100136.19;5040051;28;20228;-79
2023/04/12 00:19:19;;;;;;;2.33;1.83;;;;;;;6.07;74.58;100137.88;5040121;28;20738;-79
2023/04/12 00:21:45;;;;;;;4.33;2.43;;;;;;;6.08;74.50;100147.38;5040417;28;20234;-80
2023/04/12 00:24:12;;;;;;;2.43;1.70;;;;;;;6.04;74.52;100142.22;5039659;28;20207;-78
2023/04/12 00:26:38;;;;;;;2.97;1.87;;;;;;;6.02;75.13;100142.22;5038091;28;20222;-79
2023/04/12 00:29:05;;;;;;;2.27;1.70;;;;;;;6.07;73.94;100137.03;5038697;28;20203;-79
2023/04/12 00:31:32;;;;;;;2.90;1.50;;;;;;;6.06;73.10;100143.06;5039477;28;20213;-77
2023/04/12 00:33:59;;;;;;;2.93;1.93;;;;;;;6.00;73.98;100149.13;5039276;28;20205;-79
2023/04/12 00:36:25;;;;;;;2.60;1.67;;;;;;;5.95;72.82;100149.16;5039288;28;20228;-79
2023/04/12 00:38:52;;;;;;;3.20;1.57;;;;;;;5.94;73.26;100162.09;5037549;28;20297;-78
2023/04/12 00:41:18;;;;;;;3.20;1.70;;;;;;;5.96;73.57;100163.81;5038652;28;20231;-80
2023/04/12 00:43:46;;;;;;;2.37;1.63;;;;;;;5.96;73.44;100162.97;5039682;28;20821;-80
2023/04/12 00:46:12;;;;;;;1.70;1.60;;;;;;;5.98;73.77;100153.47;5037854;28;20228;-79
2023/04/12 00:48:40;;;;;;;7.97;2.20;;;;;;;5.97;74.64;100142.25;5038821;28;20624;-80
2023/04/12 00:51:07;;;;;;;4.40;1.73;;;;;;;5.89;73.88;100120.69;5038992;28;20257;-79
2023/04/12 00:53:34;;;;;;;2.47;1.43;;;;;;;5.92;74.87;100114.63;5039244;28;20208;-80
2023/04/12 00:56:02;;;;;;;2.47;1.60;;;;;;;5.93;74.62;100108.56;5037908;28;20309;-79
2023/04/12 00:58:28;;;;;;;3.00;1.73;;;;;;;5.91;74.42;100098.22;5038607;28;20211;-79
2023/04/12 01:00:55;;;;;;;3.27;1.50;;;;;;;5.93;75.38;100083.53;5038953;28;20575;-79
2023/04/12 01:03:23;;;;;;;1.40;1.30;;;;;;;5.94;76.02;100061.91;5039318;28;20255;-79
2023/04/12 01:05:59;;;;;;;1.67;1.53;;;;;;;5.93;75.93;100036.91;5039010;28;20791;-79
2023/04/12 01:08:39;;;;;;;2.73;1.43;;;;;;;5.92;76.60;100016.19;5038783;28;20312;-79
2023/04/12 01:11:10;;;;;;;1.93;1.80;;;;;;;5.85;76.81;99988.63;5038837;28;20202;-79
2023/04/12 01:13:44;;;;;;;1.70;1.40;;;;;;;5.85;77.19;99976.53;5039044;28;20205;-79
2023/04/12 01:16:18;;;;;;;2.27;1.73;;;;;;;5.77;77.27;99966.22;5030906;28;20235;-79
2023/04/12 01:18:50;;;;;;;3.73;1.83;;;;;;;5.81;77.17;99955.81;5038080;28;20304;-79
2023/04/12 01:21:24;;;;;;;2.33;1.60;;;;;;;5.82;76.67;99942.84;5038745;28;20687;-79
2023/04/12 01:24:20;;;;;;;3.87;1.53;;;;;;;5.81;77.29;99945.44;5038453;28;20236;-78
2023/04/12 01:26:50;;;;;;;2.17;1.70;;;;;;;5.86;77.14;99925.56;5038361;28;20232;-79
2023/04/12 01:29:20;;;;;;;4.00;1.80;;;;;;;5.87;75.52;99935.06;5037386;28;20216;-78
2023/04/12 01:31:53;;;;;;;1.57;1.30;;;;;;;5.97;73.52;99975.59;5036803;28;20724;-79
2023/04/12 01:34:21;;;;;;;3.27;2.57;;;;;;;5.96;72.69;100023.09;5037933;28;20206;-79
2023/04/12 01:36:49;;;;;;;1.90;1.70;;;;;;;5.94;71.81;100055.88;5037704;28;20259;-79
2023/04/12 01:39:15;;;;;;;3.07;1.80;;;;;;;5.89;73.99;100057.66;5037418;28;20688;-79
2023/04/12 01:41:44;;;;;;;3.37;1.73;;;;;;;5.91;72.56;100038.63;5038521;28;20207;-79
2023/04/12 01:44:12;;;;;;;5.17;1.53;;;;;;;5.95;72.11;100060.25;5037027;28;20711;-79
2023/04/12 01:46:41;;;;;;;3.57;1.53;;;;;;;5.97;72.03;100077.47;5037025;28;20646;-80
2023/04/12 01:49:07;;;;;;;2.97;1.90;;;;;;;5.95;72.39;100071.44;5016702;28;20213;-79
2023/04/12 01:51:43;;;;;;;4.83;1.77;;;;;;;6.05;72.39;100081.78;5018009;28;20209;-79
2023/04/12 01:54:13;;;;;;;3.17;1.53;;;;;;;6.00;72.23;100093.88;5017791;28;20203;-79
2023/04/12 01:56:43;;;;;;;1.47;1.30;;;;;;;5.99;72.04;100092.19;5016930;28;20258;-79
2023/04/12 01:59:13;;;;;;;2.57;2.30;;;;;;;6.00;72.10;100092.13;5016863;28;20205;-79
2023/04/12 02:01:41;;;;;;;2.87;1.83;;;;;;;6.01;72.05;100082.66;5018056;28;20209;-79
2023/04/12 02:04:09;;;;;;;1.77;1.40;;;;;;;6.09;71.77;100086.91;5017813;28;20227;-79
2023/04/12 02:06:37;;;;;;;3.47;1.57;;;;;;;6.10;69.95;100093.81;5016955;28;20248;-79
2023/04/12 02:09:04;;;;;;;4.47;1.73;;;;;;;6.08;70.46;100121.44;5016293;28;20644;-79
2023/04/12 02:11:31;;;;;;;5.70;2.00;;;;;;;6.17;70.15;100120.56;5017222;28;20207;-79
2023/04/12 02:13:57;;;;;;;2.87;1.77;;;;;;;6.18;71.07;100116.22;5018946;28;20253;-79
2023/04/12 02:16:24;;;;;;;5.20;2.00;;;;;;;6.19;70.58;100116.22;5035669;28;20286;-79
2023/04/12 02:18:51;;;;;;;2.33;1.50;;;;;;;6.22;70.03;100113.59;5036448;28;20246;-79
2023/04/12 02:21:18;;;;;;;2.57;1.50;;;;;;;6.23;69.32;100110.16;5036830;28;20212;-79
2023/04/12 02:23:44;;;;;;;2.40;1.60;;;;;;;6.32;69.52;100122.19;5036055;28;20770;-79
2023/04/12 02:26:10;;;;;;;2.07;1.87;;;;;;;6.38;68.66;100121.28;5036471;28;20241;-79
2023/04/12 02:28:37;;;;;;;2.97;1.67;;;;;;;6.39;69.80;100134.25;5036528;28;20219;-79
2023/04/12 02:31:04;;;;;;;4.10;2.00;;;;;;;6.40;69.84;100122.13;5036781;28;20323;-79
2023/04/12 02:33:31;;;;;;;1.97;1.43;;;;;;;6.38;69.31;100122.13;5037315;28;20588;-79
2023/04/12 02:36:01;;;;;;;2.73;1.60;;;;;;;6.34;70.16;100121.31;5036385;28;20229;-79
2023/04/12 02:38:27;;;;;;;5.77;1.87;;;;;;;6.36;69.63;100111.78;5036017;28;20295;-79
2023/04/12 02:40:54;;;;;;;3.87;1.90;;;;;;;6.30;69.92;100110.97;5036734;28;20207;-79
2023/04/12 02:43:20;;;;;;;5.20;1.80;;;;;;;6.38;69.95;100105.72;5035010;28;20235;-79
2023/04/12 02:45:47;;;;;;;4.03;1.90;;;;;;;6.35;69.64;100102.28;5036012;28;20229;-79
2023/04/12 02:48:13;;;;;;;2.63;1.47;;;;;;;6.32;69.28;100088.47;5036855;28;20268;-80
2023/04/12 02:50:39;;;;;;;2.87;1.60;;;;;;;6.36;69.67;100082.41;5039126;28;20209;-79
2023/04/12 02:53:07;;;;;;;3.40;1.70;;;;;;;6.44;69.29;100079.75;5039864;28;20202;-79
2023/04/12 02:55:35;;;;;;;3.10;1.73;;;;;;;6.47;68.97;100077.16;5046410;28;20205;-78
2023/04/12 02:58:01;;;;;;;2.07;1.67;;;;;;;6.50;67.93;100075.41;5040755;28;20245;-79
2023/04/12 03:00:28;;;;;;;2.70;1.70;;;;;;;6.51;68.81;100081.44;5040359;28;20248;-79
2023/04/12 03:02:54;;;;;;;2.67;1.90;;;;;;;6.54;69.10;100078.78;5040506;28;20222;-79
2023/04/12 03:05:21;;;;;;;2.63;1.60;;;;;;;6.58;68.87;100080.53;5040048;28;20259;-79
2023/04/12 03:07:47;;;;;;;2.57;1.60;;;;;;;6.64;69.22;100067.50;5039942;28;20239;-79
2023/04/12 03:10:15;;;;;;;2.33;1.40;;;;;;;6.59;69.08;100073.59;5039987;28;20211;-79
2023/04/12 03:12:41;;;;;;;5.27;1.80;;;;;;;6.62;68.83;100058.00;5040037;28;20208;-79
2023/04/12 03:15:09;;;;;;;4.57;1.50;;;;;;;6.57;69.54;100045.94;5040005;28;20282;-79
2023/04/12 03:17:35;;;;;;;3.00;1.67;;;;;;;6.56;68.82;100035.56;5039406;28;20276;-79
2023/04/12 03:20:08;;;;;;;2.77;1.60;;;;;;;6.57;69.62;100020.00;5040100;28;20209;-80
2023/04/12 03:22:36;;;;;;;3.83;2.10;;;;;;;6.56;70.16;99999.25;5039943;28;20220;-80
2023/04/12 03:25:02;;;;;;;3.23;1.53;;;;;;;6.60;69.25;100000.97;5040216;28;20591;-79
2023/04/12 03:27:30;;;;;;;2.90;1.53;;;;;;;6.63;68.93;99998.34;5040329;28;20229;-80
2023/04/12 03:29:56;;;;;;;5.13;1.77;;;;;;;6.57;69.93;100001.00;5040098;28;20263;-79
2023/04/12 03:32:23;;;;;;;2.87;1.50;;;;;;;6.54;71.49;99986.34;5040188;28;20216;-79
2023/04/12 03:34:50;;;;;;;2.43;1.63;;;;;;;6.51;70.82;99964.75;5040303;28;20910;-80
2023/04/12 03:37:16;;;;;;;2.67;1.80;;;;;;;6.51;71.04;99949.19;5039166;28;20740;-79
2023/04/12 03:39:46;;;;;;;3.27;1.97;;;;;;;6.53;70.33;99937.06;5039867;28;20217;-80
2023/04/12 03:42:13;;;;;;;4.50;2.43;;;;;;;6.52;71.16;99936.22;5039644;28;20253;-79
2023/04/12 03:44:40;;;;;;;1.97;1.80;;;;;;;6.56;71.02;99918.88;5038408;28;20233;-79
2023/04/12 03:47:07;;;;;;;3.20;1.63;;;;;;;6.57;71.57;99897.28;5040564;28;20281;-80
2023/04/12 03:49:33;;;;;;;3.03;1.80;;;;;;;6.54;72.85;99874.84;5039878;28;20262;-80
2023/04/12 03:52:00;;;;;;;3.00;1.70;;;;;;;6.55;73.09;99852.34;5040203;28;20228;-79
2023/04/12 03:54:27;;;;;;;4.40;1.80;;;;;;;6.54;73.48;99830.75;5040104;28;20206;-79
2023/04/12 03:56:53;;;;;;;2.30;1.63;;;;;;;6.54;72.33;99822.09;5039475;28;20348;-79
2023/04/12 03:59:19;;;;;;;4.83;1.40;;;;;;;6.52;73.66;99814.38;5039445;28;20268;-80
2023/04/12 04:01:47;;;;;;;2.53;1.80;;;;;;;6.53;72.13;99797.06;5039254;28;20207;-79
2023/04/12 04:04:14;;;;;;;2.27;1.50;;;;;;;6.52;72.69;99809.19;5039888;28;20274;-79
2023/04/12 04:06:40;;;;;;;4.30;1.73;;;;;;;6.57;71.65;99801.34;5038907;28;20661;-79
2023/04/12 04:09:07;;;;;;;3.20;1.60;;;;;;;6.58;71.21;99821.22;5038987;28;20252;-79
2023/04/12 04:11:33;;;;;;;2.37;1.60;;;;;;;6.62;71.00;99833.25;5038809;28;20208;-79
2023/04/12 04:13:59;;;;;;;3.70;1.60;;;;;;;6.58;71.79;99821.22;5039883;28;20587;-79
2023/04/12 04:16:27;;;;;;;3.23;1.37;;;;;;;6.59;71.31;99822.06;5038970;28;20761;-80
2023/04/12 04:18:55;;;;;;;1.70;1.60;;;;;;;6.62;71.23;99819.41;5038675;28;20217;-80
2023/04/12 04:21:22;;;;;;;3.47;2.27;;;;;;;6.60;71.69;99814.28;5039134;28;20258;-80
2023/04/12 04:23:50;;;;;;;2.13;1.47;;;;;;;6.56;71.40;99800.47;5039810;28;20236;-80
2023/04/12 04:26:17;;;;;;;1.50;1.40;;;;;;;6.57;71.50;99814.28;5038932;28;20229;-79
2023/04/12 04:28:44;;;;;;;3.20;1.53;;;;;;;6.57;71.79;99803.94;5038635;28;20212;-79
2023/04/12 04:31:12;;;;;;;2.33;1.43;;;;;;;6.53;70.50;99818.66;5038728;28;20693;-79
2023/04/12 04:33:40;;;;;;;2.30;1.67;;;;;;;6.59;70.92;99827.25;5039001;28;20255;-79
2023/04/12 04:36:09;;;;;;;3.63;1.60;;;;;;;6.60;70.72;99814.28;5038728;28;20229;-79
2023/04/12 04:38:36;;;;;;;2.57;1.47;;;;;;;6.51;72.19;99814.38;5038281;28;20228;-79
2023/04/12 04:41:03;;;;;;;2.67;1.33;;;;;;;6.54;69.00;99810.00;5038361;28;20221;-79
2023/04/12 04:43:30;;;;;;;3.43;1.30;;;;;;;6.62;67.94;99850.53;5037996;28;20226;-79
2023/04/12 04:45:56;;;;;;;1.97;1.40;;;;;;;6.64;69.96;99870.41;5038848;28;20318;-79
2023/04/12 04:48:23;;;;;;;2.67;1.60;;;;;;;6.69;69.64;99862.56;5038388;28;20212;-79
2023/04/12 04:50:50;;;;;;;1.30;1.20;;;;;;;6.73;69.51;99857.31;5038503;28;20621;-78
2023/04/12 04:53:19;;;;;;;2.93;1.80;;;;;;;6.84;69.12;99856.28;5038417;28;20247;-79
2023/04/12 04:55:46;;;;;;;2.57;1.60;;;;;;;6.82;68.95;99882.28;5038358;28;20233;-79
2023/04/12 04:58:13;;;;;;;2.97;1.37;;;;;;;6.83;70.26;99859.78;5038250;28;20206;-79
2023/04/12 05:00:43;;;;;;;2.13;1.23;;;;;;;6.78;68.51;99862.44;5038743;28;20216;-79
2023/04/12 05:03:09;;;;;;;2.73;1.37;;;;;;;6.76;68.43;99872.00;5038185;28;20283;-79
2023/04/12 05:05:36;;;;;;;1.93;1.40;;;;;;;6.80;69.18;99858.09;5037884;28;20617;-79
2023/04/12 05:08:03;;;;;;;1.90;1.40;;;;;;;6.89;68.47;99852.78;5063798;22;20229;-75
2023/04/12 05:10:30;;;;;;;1.90;1.50;;;;;;;6.92;66.95;99883.88;5072841;28;20257;-75
2023/04/12 05:12:57;;;;;;;3.47;1.40;;;;;;;6.97;67.88;99889.84;5072366;28;20281;-75
2023/04/12 05:15:23;;;;;;;2.57;1.20;;;;;;;7.03;67.55;99890.66;5072867;28;20711;-74
2023/04/12 05:17:50;;;;;;;2.77;1.50;;;;;;;7.03;65.31;99899.28;5072533;28;20282;-75
2023/04/12 05:20:17;;;;;;;2.43;1.47;;;;;;;7.11;66.19;99935.53;5072929;28;20673;-75
2023/04/12 05:22:43;;;;;;;1.97;1.33;;;;;;;7.16;67.03;99944.13;5072726;28;20216;-74
2023/04/12 05:25:10;;;;;;;4.17;1.90;;;;;;;7.22;66.06;99938.00;5072867;28;20346;-74
2023/04/12 05:27:38;;;;;;;1.90;1.10;;;;;;;7.25;66.36;99940.53;5072581;28;20472;-74
2023/04/12 05:30:06;;;;;;;2.70;1.50;;;;;;;7.26;65.58;99945.72;5072619;28;20209;-74
2023/04/12 05:32:33;;;;;;;2.80;1.80;;;;;;;7.30;65.02;99964.72;5072665;28;20208;-74
2023/04/12 05:34:59;;;;;;;4.60;1.43;;;;;;;7.34;66.49;99972.44;5072367;28;20260;-74
2023/04/12 05:37:26;;;;;;;3.87;1.33;;;;;;;7.40;65.05;99968.03;5072469;28;20258;-74
2023/04/12 05:39:53;;;;;;;3.13;1.40;;;;;;;7.43;65.62;99960.19;5064995;28;20273;-74
2023/04/12 05:42:19;;;;;;;2.43;1.37;;;;;;;7.43;65.33;99971.44;5060412;28;20739;-74
2023/04/12 05:44:49;;;;;;;2.37;1.13;;;;;;;7.49;65.88;99963.59;5063558;28;20273;-74
2023/04/12 05:47:16;;;;;;;2.30;1.57;;;;;;;7.52;66.74;99945.34;5063257;28;20313;-73
2023/04/12 05:49:42;;;;;;;3.57;1.60;;;;;;;7.45;66.09;99929.88;5062405;28;20653;-74
2023/04/12 05:52:09;;;;;;;1.40;1.27;;;;;;;7.40;65.54;99921.31;5061860;28;20212;-74
2023/04/12 05:54:35;;;;;;;3.47;1.30;;;;;;;7.38;67.16;99918.72;5060543;28;20197;-74
2023/04/12 05:57:01;;;;;;;1.87;1.50;;;;;;;7.42;67.05;99910.00;5062520;28;20269;-74
2023/04/12 05:59:28;;;;;;;3.10;1.43;;;;;;;7.41;67.25;99910.03;5061462;28;20199;-74
2023/04/12 06:01:56;;;;;;;2.50;1.40;;;;;;;7.35;66.07;99904.06;5060653;28;20206;-73
2023/04/12 06:04:22;;;;;;;2.37;1.20;;;;;;;7.32;67.15;99892.84;5062432;28;20634;-74
2023/04/12 06:06:49;;;;;;;1.77;1.50;;;;;;;7.29;66.34;99879.91;5061464;28;20779;-74
2023/04/12 06:09:15;;;;;;;2.33;1.40;;;;;;;7.29;66.80;99866.94;5057619;28;20268;-73
2023/04/12 06:11:41;;;;;;;4.80;1.57;;;;;;;7.34;66.93;99852.16;5062475;28;20611;-74
2023/04/12 06:14:08;;;;;;;2.23;1.30;;;;;;;7.34;67.04;99865.13;5061364;28;20193;-74
2023/04/12 06:16:34;;;;;;;4.30;1.50;;;;;;;7.37;67.35;99852.09;5065072;28;20279;-73
2023/04/12 06:19:02;;;;;;;2.13;1.53;;;;;;;7.44;67.21;99848.53;5065311;28;20209;-75
2023/04/12 06:21:28;;;;;;;2.57;1.70;;;;;;;7.49;67.60;99838.94;5061547;28;20201;-75
2023/04/12 06:23:55;;;;;;;3.30;1.73;;;;;;;7.54;68.35;99821.53;5059485;28;20235;-75
2023/04/12 06:26:21;;;;;;;2.50;1.77;;;;;;;7.55;66.67;99818.06;5061941;28;20203;-75
2023/04/12 06:28:48;;;;;;;2.33;1.57;;;;;;;7.66;66.78;99817.00;5060617;28;20200;-74
2023/04/12 06:31:15;;;;;;;3.30;1.67;;;;;;;7.73;67.92;99806.50;5060665;28;20280;-77
2023/04/12 06:33:41;;;;;;;3.37;1.70;;;;;;;7.86;66.76;99790.69;5062386;28;20201;-76
2023/04/12 06:36:10;;;;;;;2.80;1.40;;;;;;;7.94;67.10;99794.00;5061432;28;20203;-75
2023/04/12 06:38:37;;;;;;;1.60;1.50;;;;;;;8.03;67.53;99791.22;5059748;28;20221;-75
2023/04/12 06:41:03;;;;;;;3.37;2.07;;;;;;;8.11;66.94;99798.88;5051298;28;20624;-75
2023/04/12 06:43:30;;;;;;;4.40;1.43;;;;;;;8.19;67.66;99790.94;5051361;28;20695;-74
2023/04/12 06:45:57;;;;;;;2.17;1.43;;;;;;;8.27;68.85;99768.25;5067477;28;20251;-75
2023/04/12 06:48:23;;;;;;;5.43;1.97;;;;;;;8.41;68.08;99723.75;5074098;28;20719;-75
2023/04/12 06:50:50;;;;;;;4.00;1.87;;;;;;;8.49;67.40;99711.47;5071647;28;20254;-75
2023/04/12 06:53:17;;;;;;;2.90;1.73;;;;;;;8.60;68.00;99729.41;5062059;28;20261;-75
2023/04/12 06:55:44;;;;;;;2.07;1.33;;;;;;;8.67;67.40;99725.78;5063537;28;20532;-75
2023/04/12 06:58:10;;;;;;;3.30;1.60;;;;;;;8.65;68.80;99728.44;5060913;28;20226;-75
2023/04/12 07:00:37;;;;;;;4.13;1.60;;;;;;;8.77;68.85;99700.44;5061499;28;20259;-75
2023/04/12 07:03:03;;;;;;;3.77;1.83;;;;;;;8.78;68.20;99705.59;5057161;28;20554;-75
2023/04/12 07:05:30;;;;;;;3.43;1.40;;;;;;;8.80;68.41;99692.53;5056901;28;20218;-75
2023/04/12 07:07:56;;;;;;;4.47;1.60;;;;;;;8.87;68.27;99692.34;5060895;28;20236;-75
2023/04/12 07:10:24;;;;;;;5.40;1.87;;;;;;;8.90;67.82;99675.78;5056222;28;20676;-75
2023/04/12 07:12:51;;;;;;;3.43;1.37;;;;;;;8.88;67.94;99707.09;5063155;28;20550;-75
2023/04/12 07:15:18;;;;;;;3.00;1.73;;;;;;;8.89;67.25;99700.97;5071005;28;20206;-75
2023/04/12 07:17:44;;;;;;;5.13;1.67;;;;;;;8.90;68.29;99694.91;5070891;28;20617;-75
2023/04/12 07:20:11;;;;;;;2.77;1.50;;;;;;;8.90;68.54;99684.47;5071083;28;20205;-75
2023/04/12 07:22:38;;;;;;;2.43;1.40;;;;;;;8.87;69.40;99671.53;5071197;28;20265;-75
2023/04/12 07:25:08;;;;;;;2.97;1.50;;;;;;;8.89;69.82;99637.66;5070437;28;20297;-76
2023/04/12 07:27:36;;;;;;;4.43;2.53;;;;;;;9.01;72.11;99626.94;5070462;28;20330;-75
2023/04/12 07:30:03;;;;;;;3.93;2.10;;;;;;;9.15;70.81;99567.53;5069668;28;20685;-75
2023/04/12 07:32:29;;;;;;;3.07;1.60;;;;;;;9.37;70.59;99543.50;5070052;28;20605;-75
2023/04/12 07:34:56;;;;;;;7.40;2.10;;;;;;;9.58;73.76;99562.06;5064665;28;20219;-75
2023/04/12 07:37:22;;;;;;;3.37;1.70;;;;;;;9.96;74.85;99450.56;5064398;28;20216;-75
2023/04/12 07:39:48;;;;;;;2.33;1.40;;;;;;;10.05;68.96;99476.31;5059967;28;20232;-76
2023/04/12 07:42:15;;;;;;;3.03;1.40;;;;;;;10.14;69.01;99531.63;5055042;28;20237;-76
2023/04/12 07:44:43;;;;;;;3.57;1.60;;;;;;;10.25;67.18;99557.38;5057612;28;20247;-75
2023/04/12 07:47:09;;;;;;;3.83;1.80;;;;;;;10.21;68.00;99588.81;5073883;28;20767;-75
2023/04/12 07:49:36;;;;;;;3.10;1.83;;;;;;;10.34;67.62;99595.38;5074525;28;20207;-76
2023/04/12 07:52:02;;;;;;;5.13;1.70;;;;;;;10.46;69.80;99601.97;5074677;28;20207;-76
2023/04/12 07:54:29;;;;;;;1.60;1.30;;;;;;;10.63;69.32;99564.91;5074468;28;20274;-76
2023/04/12 07:56:59;;;;;;;3.80;1.60;;;;;;;10.80;67.08;99559.97;5074281;28;20741;-76
2023/04/12 07:59:25;;;;;;;2.53;1.70;;;;;;;10.89;68.17;99603.19;5074615;28;20210;-76
2023/04/12 08:01:53;;;;;;;2.43;1.60;;;;;;;10.77;63.71;99672.31;5074505;28;20261;-76
2023/04/12 08:04:20;;;;;;;2.63;1.70;;;;;;;10.90;65.70;99671.03;5074429;28;20262;-76
2023/04/12 08:06:47;;;;;;;3.77;1.40;;;;;;;10.87;64.45;99701.59;5074170;28;20254;-76
2023/04/12 08:09:13;;;;;;;3.47;1.90;;;;;;;10.55;62.78;99746.97;5074010;28;20744;-75
2023/04/12 08:11:39;;;;;;;4.83;1.60;;;;;;;10.48;64.74;99760.19;5074685;28;20260;-76
2023/04/12 08:14:06;;;;;;;6.70;1.37;;;;;;;10.42;65.34;99731.66;5074425;28;20254;-76
2023/04/12 08:16:33;;;;;;;4.30;1.60;;;;;;;10.44;66.65;99700.31;5073814;28;20197;-76
2023/04/12 08:19:01;;;;;;;4.03;1.60;;;;;;;10.34;63.58;99663.22;5073887;28;20205;-76
2023/04/12 08:21:28;;;;;;;3.23;1.50;;;;;;;10.29;63.93;99702.47;5074035;28;20261;-76
2023/04/12 08:23:55;;;;;;;2.87;1.30;;;;;;;10.27;65.11;99699.03;5074294;28;20205;-76
2023/04/12 08:26:22;;;;;;;4.37;1.50;;;;;;;10.11;63.81;99711.69;5073926;28;20240;-75
2023/04/12 08:28:48;;;;;;;2.93;1.20;;;;;;;10.04;63.48;99733.59;5073784;28;20243;-76
2023/04/12 08:31:15;;;;;;;2.73;1.60;;;;;;;10.03;64.41;99741.47;5073923;28;20208;-75
2023/04/12 08:33:41;;;;;;;3.33;1.50;;;;;;;9.98;64.63;99728.56;5073747;28;20741;-75
2023/04/12 08:36:10;;;;;;;2.00;1.30;;;;;;;9.88;64.55;99725.34;5073761;28;20262;-75
2023/04/12 08:38:37;;;;;;;2.77;1.53;;;;;;;9.93;65.57;99707.84;5073444;28;20224;-75
2023/04/12 08:41:04;;;;;;;2.07;1.17;;;;;;;9.98;65.16;99683.38;5073575;28;20262;-76
2023/04/12 08:43:33;;;;;;;2.37;1.50;;;;;;;9.95;64.66;99660.88;5073819;28;20207;-75
2023/04/12 08:46:00;;;;;;;5.27;1.73;;;;;;;9.94;64.86;99680.84;5073312;28;20572;-75
2023/04/12 08:48:27;;;;;;;1.37;1.27;;;;;;;9.87;66.58;99673.25;5072181;28;20224;-75
2023/04/12 08:50:55;;;;;;;2.60;2.20;;;;;;;9.75;67.67;99640.56;5073745;28;20207;-75
2023/04/12 08:53:23;;;;;;;3.40;1.93;;;;;;;9.51;68.70;99603.91;5073762;28;20242;-76
2023/04/12 08:55:50;;;;;;;3.87;2.20;;;;;;;9.49;70.41;99534.50;5073654;28;20208;-75
2023/04/12 08:58:17;;;;;;;3.90;1.47;;;;;;;9.54;73.38;99439.69;5073181;28;20598;-75
2023/04/12 09:00:45;;;;;;;4.30;1.73;;;;;;;9.47;72.93;99406.06;5073287;28;20675;-79
2023/04/12 09:03:12;;;;;;;3.50;2.33;;;;;;;9.46;73.41;99342.69;5080337;28;20211;-80
2023/04/12 09:05:38;;;;;;;2.00;1.67;;;;;;;9.50;74.25;99291.34;5081014;28;20293;-78
2023/04/12 09:08:05;;;;;;;3.10;1.90;;;;;;;9.33;74.20;99282.31;5069265;28;20644;-78
2023/04/12 09:10:35;;;;;;;3.00;1.70;;;;;;;9.33;73.08;99269.28;5073585;28;20200;-76
2023/04/12 09:13:02;;;;;;;2.53;1.60;;;;;;;9.32;74.36;99266.75;5065756;28;20197;-77
2023/04/12 09:15:30;;;;;;;3.30;1.70;;;;;;;9.32;74.27;99244.16;5071149;28;20199;-75
2023/04/12 09:18:04;;;;;;;5.43;1.77;;;;;;;9.30;74.52;99243.38;5080969;28;20233;-75
2023/04/12 09:20:31;;;;;;;2.30;1.70;;;;;;;9.33;74.16;99229.38;5075056;28;20212;-75
2023/04/12 09:22:59;;;;;;;2.07;1.50;;;;;;;9.28;75.56;99211.31;5074039;28;21708;-77
2023/04/12 09:25:38;;;;;;;2.90;2.13;;;;;;;9.28;75.52;99179.25;5078233;28;20218;-78
2023/04/12 09:28:17;;;;;;;3.13;1.63;;;;;;;9.31;73.82;99182.56;5063279;28;20228;-77
2023/04/12 09:30:43;;;;;;;2.20;1.60;;;;;;;9.13;74.56;99215.28;5066486;28;20212;-78
2023/04/12 09:33:13;;;;;;;3.03;1.90;;;;;;;9.21;76.09;99190.75;5068046;28;20210;-78
2023/04/12 09:35:41;;;;;;;2.57;1.63;;;;;;;9.24;77.31;99130.78;5068699;28;20617;-77
2023/04/12 09:38:08;;;;;;;3.40;1.70;;;;;;;9.34;77.86;99109.56;5066102;28;20228;-79
2023/04/12 09:40:37;;;;;;;1.87;1.30;;;;;;;9.41;77.19;99104.13;5067352;28;20208;-78
2023/04/12 09:43:03;;;;;;;2.77;1.70;;;;;;;9.33;80.56;99063.56;5068757;28;20232;-78
2023/04/12 09:45:33;;;;;;;2.53;2.33;;;;;;;9.21;80.61;99017.16;5078443;28;20226;-78
2023/04/12 09:48:00;;;;;;;2.87;1.70;;;;;;;9.30;82.40;98969.13;5086572;28;20224;-78
2023/04/12 09:50:28;;;;;;;3.00;1.80;;;;;;;9.19;80.79;98956.47;5085999;28;20272;-77
2023/04/12 09:52:56;;;;;;;2.33;1.80;;;;;;;9.20;83.99;98921.75;5085918;28;20666;-80
2023/04/12 09:55:24;;;;;;;2.87;1.90;;;;;;;9.30;85.05;98849.34;5087605;28;20227;-78
2023/04/12 09:57:53;;;;;;;4.07;2.10;;;;;;;9.29;85.05;98829.41;5086414;28;20231;-80
2023/04/12 10:00:23;;;;;;;1.97;1.60;;;;;;;9.32;85.21;98826.69;5082721;28;20212;-80
2023/04/12 10:02:52;;;;;;;2.57;2.00;;;;;;;9.27;85.34;98813.00;5083299;28;20209;-79
2023/04/12 10:05:20;;;;;;;5.70;1.90;;;;;;;9.25;87.80;98780.97;5086969;28;20242;-78
2023/04/12 10:07:47;;;;;;;2.10;1.90;;;;;;;9.23;87.16;98759.34;5086786;28;20242;-80
2023/04/12 10:10:15;;;;;;;2.53;1.90;;;;;;;9.32;88.37;98740.78;5087810;28;20207;-80
2023/04/12 10:12:44;;;;;;;2.23;1.90;;;;;;;9.43;87.52;98742.91;5089333;28;20271;-79
2023/04/12 10:15:15;;;;;;;1.80;1.70;;;;;;;9.37;86.44;98762.25;5084125;28;20196;-78
2023/04/12 10:17:45;;;;;;;5.30;2.53;;;;;;;9.34;86.07;98780.59;5079426;28;20221;-79
2023/04/12 10:20:12;;;;;;;2.87;1.70;;;;;;;9.39;86.36;98777.81;5082803;28;20292;-79
2023/04/12 10:22:40;;;;;;;2.13;1.80;;;;;;;9.31;86.21;98793.75;5082867;28;20651;-79
2023/04/12 10:25:11;;;;;;;1.90;1.60;;;;;;;9.17;85.32;98814.28;5078489;28;20298;-78
2023/04/12 10:27:40;;;;;;;2.83;1.70;;;;;;;9.15;85.92;98827.34;5073598;28;20727;-76
2023/04/12 10:30:21;;;;;;;2.90;1.83;;;;;;;9.22;85.61;98833.19;5078415;28;20295;-76
2023/04/12 10:32:49;;;;;;;2.60;1.67;;;;;;;9.24;85.50;98813.97;5085365;28;20296;-77
2023/04/12 10:35:16;;;;;;;2.00;1.90;;;;;;;9.38;85.92;98815.19;5080117;28;20221;-77
2023/04/12 10:37:59;;;;;;;2.80;2.13;;;;;;;9.46;85.41;98806.16;5079594;28;20232;-77
2023/04/12 10:40:25;;;;;;;2.17;1.80;;;;;;;9.65;85.66;98814.06;5087748;28;20202;-77
2023/04/12 10:43:21;;;;;;;2.33;1.63;;;;;;;9.77;85.08;98815.28;5083511;28;20200;-78
2023/04/12 10:45:50;;;;;;;3.73;2.30;;;;;;;9.94;83.84;98845.88;5070236;28;20288;-78
2023/04/12 10:48:29;;;;;;;2.10;1.80;;;;;;;10.06;83.55;98853.16;5071806;28;20228;-77
2023/04/12 10:51:15;;;;;;;2.53;1.50;;;;;;;10.01;84.04;98870.78;5065988;28;20235;-78
2023/04/12 10:53:41;;;;;;;2.30;1.60;;;;;;;9.98;84.75;98854.41;5069407;28;20204;-78
2023/04/12 10:56:35;;;;;;;1.60;1.50;;;;;;;10.10;85.80;98826.03;5068446;28;20197;-78
2023/04/12 10:59:02;;;;;;;2.50;1.57;;;;;;;10.11;84.43;98827.75;5068681;28;20208;-78
2023/04/12 11:01:31;;;;;;;2.87;1.93;;;;;;;10.22;84.48;98832.50;5070973;28;20199;-78
2023/04/12 11:04:08;;;;;;;2.10;1.60;;;;;;;9.95;83.70;98847.56;5076360;28;20215;-79
2023/04/12 11:06:56;;;;;;;2.97;1.93;;;;;;;10.04;85.06;98835.91;5068746;28;20218;-79
2023/04/12 11:09:25;;;;;;;1.60;1.30;;;;;;;10.03;86.02;98811.59;5068274;22;20231;-76
2023/04/12 11:11:52;;;;;;;2.17;1.13;;;;;;;10.04;85.37;98818.50;5040814;28;20208;-76
2023/04/12 11:14:25;;;;;;;2.43;1.23;;;;;;;10.16;84.09;98837.13;5046417;28;20210;-77
2023/04/12 11:17:24;;;;;;;2.47;1.37;;;;;;;10.07;81.48;98899.19;5041827;28;20205;-76
2023/04/12 11:19:56;;;;;;;2.63;1.37;;;;;;;10.05;83.71;98885.38;5024142;28;20260;-76
2023/04/12 11:22:25;;;;;;;1.60;1.10;;;;;;;9.98;82.88;98889.13;5025897;28;20278;-78
2023/04/12 11:24:53;;;;;;;2.90;2.20;;;;;;;10.12;83.65;98891.16;5021985;28;20206;-78
2023/04/12 11:27:20;;;;;;;2.03;1.50;;;;;;;10.24;82.87;98885.41;5025066;28;20225;-78
2023/04/12 11:29:49;;;;;;;2.27;1.10;;;;;;;10.33;83.61;98877.25;5026613;28;20221;-80
2023/04/12 11:32:16;;;;;;;1.67;1.13;;;;;;;10.36;82.96;98886.69;5025247;28;20202;-79
2023/04/12 11:34:44;;;;;;;1.97;1.10;;;;;;;10.37;82.70;98884.97;5024775;28;20194;-77
2023/04/12 11:37:11;;;;;;;1.63;1.37;;;;;;;10.37;83.42;98887.56;5022089;28;20199;-78
2023/04/12 11:39:39;;;;;;;1.30;1.20;;;;;;;10.12;80.94;98891.16;5025446;28;20218;-79
2023/04/12 11:42:07;;;;;;;1.27;1.17;;;;;;;10.17;82.31;98910.09;5027832;28;20215;-79
2023/04/12 11:44:34;;;;;;;1.03;1.00;;;;;;;10.28;83.81;98871.34;5026920;28;20206;-80